createdAt,value
2022-11-18T00:07:48.877Z,8.80
2022-11-18T00:17:56.407Z,12.50
2022-11-18T00:28:03.316Z,12.40
2022-11-18T00:38:10.648Z,12.90
2022-11-18T00:48:17.270Z,11.20
2022-11-18T00:58:24.393Z,13.70
2022-11-18T01:08:31.379Z,12.30
2022-11-18T01:18:38.639Z,16.10
2022-11-18T01:28:46.591Z,11.10
2022-11-18T01:38:55.120Z,10.40
2022-11-18T01:49:06.800Z,6.80
2022-11-18T01:59:16.718Z,9.80
2022-11-18T02:09:24.655Z,11.50
2022-11-18T02:19:50.608Z,9.60
2022-11-18T02:30:00.975Z,8.50
2022-11-18T02:40:06.463Z,10.10
2022-11-18T02:50:14.094Z,12.80
2022-11-18T03:00:21.727Z,12.60
2022-11-18T03:10:34.504Z,9.20
2022-11-18T03:20:42.506Z,11.60
2022-11-18T03:30:56.068Z,13.80
2022-11-18T03:41:08.065Z,11.70
2022-11-18T03:51:17.077Z,12.20
2022-11-18T04:01:26.576Z,10.50
2022-11-18T04:21:54.732Z,11.70
2022-11-18T04:32:02.110Z,9.10
2022-11-18T04:42:09.313Z,9.20
2022-11-18T04:52:16.830Z,12.50
2022-11-18T05:02:24.319Z,9.70
2022-11-18T05:12:49.241Z,13.80
2022-11-18T05:22:56.609Z,15.80
2022-11-18T05:33:03.744Z,16.10
2022-11-18T05:43:14.524Z,13.60
2022-11-18T05:53:23.791Z,14.80
2022-11-18T06:03:36.265Z,16.00
2022-11-18T06:13:50.746Z,15.80
2022-11-18T06:23:58.510Z,13.50
2022-11-18T06:34:04.270Z,17.30
2022-11-18T06:44:13.329Z,13.50
2022-11-18T06:54:21.016Z,14.40
2022-11-18T07:04:28.353Z,17.60
2022-11-18T07:14:35.708Z,15.60
2022-11-18T07:24:43.692Z,15.20
2022-11-18T07:34:50.788Z,17.90
2022-11-18T07:44:57.833Z,12.60
2022-11-18T07:55:05.000Z,15.30
2022-11-18T08:05:14.670Z,12.30
2022-11-18T08:15:25.232Z,11.40
2022-11-18T08:25:32.389Z,14.80
2022-11-18T08:35:39.754Z,16.50
2022-11-18T08:55:57.295Z,12.90
2022-11-18T09:06:07.795Z,14.20
2022-11-18T09:16:15.613Z,10.50
2022-11-18T09:26:41.731Z,15.30
2022-11-18T09:36:48.965Z,15.40
2022-11-18T09:46:57.679Z,11.00
2022-11-18T09:57:12.054Z,16.10
2022-11-18T10:07:23.805Z,16.00
2022-11-18T10:17:33.991Z,15.10
2022-11-18T10:27:44.781Z,17.20
2022-11-18T10:38:07.958Z,20.00
2022-11-18T10:48:17.757Z,16.30
2022-11-18T10:58:26.146Z,21.40
2022-11-18T11:08:37.470Z,23.80
2022-11-18T11:18:57.523Z,18.70
2022-11-18T11:29:02.683Z,23.90
2022-11-18T11:39:15.224Z,25.00
2022-11-18T11:49:31.027Z,18.80
2022-11-18T11:59:38.690Z,23.00
2022-11-18T12:09:47.337Z,21.50
2022-11-18T12:19:54.413Z,19.60
2022-11-18T12:30:04.172Z,22.00
2022-11-18T12:40:12.184Z,23.40
2022-11-18T12:50:19.849Z,18.80
2022-11-18T13:00:53.100Z,24.90
2022-11-18T13:11:23.178Z,24.50
2022-11-18T13:21:49.858Z,17.00
2022-11-18T13:31:58.618Z,19.60
2022-11-18T13:42:06.614Z,18.90
2022-11-18T13:52:12.848Z,16.30
2022-11-18T14:02:20.734Z,11.20
2022-11-18T14:22:51.236Z,15.20
2022-11-18T14:33:15.201Z,9.90
2022-11-18T14:43:22.314Z,11.00
2022-11-18T14:53:29.730Z,10.90
2022-11-18T15:03:36.147Z,10.20
2022-11-18T15:13:44.226Z,8.10
2022-11-18T15:23:52.039Z,7.70
2022-11-18T15:34:05.099Z,13.10
2022-11-18T15:44:14.173Z,11.60
2022-11-18T15:54:20.557Z,12.80
2022-11-18T16:14:36.966Z,11.40
2022-11-18T16:35:00.013Z,15.10
2022-11-18T16:45:09.914Z,12.40
2022-11-18T16:55:18.462Z,12.00
2022-11-18T17:05:25.644Z,13.00
2022-11-18T17:15:32.639Z,11.60
2022-11-18T17:25:39.055Z,10.00
2022-11-18T17:35:46.245Z,10.40
2022-11-18T17:45:51.517Z,26.40
2022-11-18T17:56:03.735Z,24.10
2022-11-18T18:06:09.250Z,11.70
2022-11-18T18:16:16.777Z,12.20
2022-11-18T18:26:30.951Z,13.10
2022-11-18T18:36:39.477Z,11.00
2022-11-18T18:46:45.336Z,11.60
2022-11-18T18:56:52.617Z,13.70
2022-11-18T19:07:00.598Z,9.60
2022-11-18T19:17:11.358Z,13.60
2022-11-18T19:27:19.172Z,14.80
2022-11-18T19:37:25.401Z,15.30
2022-11-18T19:47:31.835Z,14.50
2022-11-18T19:57:39.247Z,12.60
2022-11-18T20:07:46.356Z,13.10
2022-11-18T20:17:53.436Z,16.70
2022-11-18T20:28:00.528Z,15.50
2022-11-18T20:38:07.764Z,14.90
2022-11-18T20:48:14.315Z,8.80
2022-11-18T20:58:21.628Z,12.40
2022-11-18T21:08:29.114Z,13.50
2022-11-18T21:18:36.393Z,13.60
2022-11-18T21:28:43.527Z,12.20
2022-11-18T21:38:51.271Z,11.20
2022-11-18T21:49:00.356Z,13.00
2022-11-18T22:09:12.501Z,13.60
2022-11-18T22:19:19.943Z,14.00
2022-11-18T22:29:27.851Z,12.00
2022-11-18T22:39:34.859Z,22.50
2022-11-18T22:49:41.901Z,35.00
2022-11-18T22:59:49.488Z,17.80
2022-11-18T23:09:56.561Z,27.10
2022-11-18T23:20:03.964Z,21.40
2022-11-18T23:30:12.687Z,17.00
2022-11-18T23:40:20.644Z,18.10
2022-11-18T23:50:27.850Z,19.00
